Time;durP1;ratioP1;P1;durP2;ratioP2;P2;SDS_P1;SDS_P2;PMS_P1;PMS_P2;Temp;Humidity;BMP_temperature;BMP_pressure;BME280_temperature;BME280_humidity;BME280_pressure;Samples;Min_cycle;Max_cycle;Signal;HPM_P1;HPM_P2
2022/05/01 00:01:14;;;;;;;0.30;0.30;;;;;;;9.40;100.00;101844.81;5037773;28;20405;-80
2022/05/01 00:03:40;;;;;;;0.30;0.30;;;;;;;9.48;100.00;101853.03;5030942;28;20037;-81
2022/05/01 00:06:07;;;;;;;0.30;0.30;;;;;;;9.48;100.00;101847.66;5053845;28;20127;-80
2022/05/01 00:08:34;;;;;;;0.40;0.40;;;;;;;9.43;100.00;101833.81;5037484;28;20040;-80
2022/05/01 00:11:00;;;;;;;0.30;0.30;;;;;;;9.51;100.00;101836.63;5044651;28;20025;-80
2022/05/01 00:13:26;;;;;;;0.38;0.38;;;;;;;9.50;100.00;101829.56;5067950;28;20043;-80
2022/05/01 00:15:52;;;;;;;0.40;0.40;;;;;;;9.46;100.00;101822.78;5055321;28;20032;-79
2022/05/01 00:18:18;;;;;;;0.40;0.40;;;;;;;9.54;100.00;101822.91;5047296;28;20063;-80
2022/05/01 00:20:45;;;;;;;0.30;0.30;;;;;;;9.47;100.00;101821.78;5052310;28;20154;-81
2022/05/01 00:23:11;;;;;;;0.30;0.30;;;;;;;9.48;100.00;101822.66;5071236;28;20040;-80
2022/05/01 00:25:38;;;;;;;0.30;0.30;;;;;;;9.49;100.00;101816.28;5054669;28;20032;-80
2022/05/01 00:28:04;;;;;;;0.30;0.30;;;;;;;9.55;100.00;101827.31;5036328;28;20040;-81
2022/05/01 00:30:30;;;;;;;0.40;0.40;;;;;;;9.54;100.00;101825.59;5053676;28;20458;-80
2022/05/01 00:38:26;;;;;;;0.30;0.30;;;;;;;9.59;100.00;101828.69;5069541;28;20027;-81
2022/05/01 00:40:52;;;;;;;0.32;0.32;;;;;;;9.57;100.00;101819.94;5068130;28;20040;-81
2022/05/01 00:43:18;;;;;;;0.30;0.30;;;;;;;9.55;100.00;101810.31;5033508;28;20043;-80
2022/05/01 00:45:43;;;;;;;0.40;0.40;;;;;;;9.56;100.00;101810.19;5053998;28;20055;-80
2022/05/01 00:48:09;;;;;;;0.40;0.40;;;;;;;9.55;100.00;101805.81;5070503;28;20089;-80
2022/05/01 00:50:35;;;;;;;0.40;0.40;;;;;;;9.59;100.00;101811.75;5035499;28;20035;-81
2022/05/01 00:53:04;;;;;;;0.30;0.30;;;;;;;9.59;100.00;101811.75;5070391;28;20078;-80
2022/05/01 00:55:34;;;;;;;0.40;0.40;;;;;;;9.62;100.00;101814.13;5063592;28;20031;-80
2022/05/01 00:58:01;;;;;;;0.40;0.40;;;;;;;9.58;100.00;101802.84;5036757;28;20494;-80
2022/05/01 01:00:27;;;;;;;0.40;0.40;;;;;;;9.61;100.00;101807.09;5054097;28;20119;-80
2022/05/01 01:02:53;;;;;;;0.40;0.40;;;;;;;9.63;100.00;101810.44;5054982;28;20029;-81
2022/05/01 01:05:19;;;;;;;0.30;0.30;;;;;;;9.59;100.00;101801.84;5069678;28;20087;-80
2022/05/01 01:07:45;;;;;;;0.30;0.30;;;;;;;9.62;100.00;101795.34;5031553;28;20045;-81
2022/05/01 01:10:11;;;;;;;0.30;0.30;;;;;;;9.53;100.00;101783.63;5052953;28;20086;-80
2022/05/01 01:12:54;;;;;;;0.40;0.40;;;;;;;9.54;100.00;101779.94;5050861;28;20031;-80
2022/05/01 01:15:28;;;;;;;0.30;0.30;;;;;;;9.62;100.00;101793.50;5049424;28;20186;-80
2022/05/01 01:17:54;;;;;;;0.70;0.70;;;;;;;9.62;100.00;101789.97;5069598;28;20124;-81
2022/05/01 01:20:25;;;;;;;0.50;0.50;;;;;;;9.62;100.00;101787.28;5036694;28;20549;-81
2022/05/01 01:22:59;;;;;;;0.40;0.40;;;;;;;9.60;100.00;101779.34;5037183;28;20030;-81
2022/05/01 01:25:31;;;;;;;0.38;0.38;;;;;;;9.57;100.00;101774.28;5066579;28;20035;-81
2022/05/01 01:28:02;;;;;;;0.40;0.40;;;;;;;9.58;100.00;101778.69;5052414;28;20033;-81
2022/05/01 01:33:15;;;;;;;0.30;0.30;;;;;;;9.54;100.00;101763.84;5063733;28;20439;-81
2022/05/01 01:35:41;;;;;;;0.40;0.40;;;;;;;9.55;100.00;101757.50;5067292;28;20389;-81
2022/05/01 01:38:06;;;;;;;0.40;0.40;;;;;;;9.55;100.00;101768.25;5068415;28;20041;-81
2022/05/01 01:40:41;;;;;;;0.30;0.30;;;;;;;9.55;100.00;101759.31;5051357;28;20029;-81
2022/05/01 01:43:06;;;;;;;0.40;0.40;;;;;;;9.53;100.00;101753.25;5068380;28;20040;-81
2022/05/01 01:45:33;;;;;;;0.30;0.30;;;;;;;9.51;100.00;101748.03;5035991;28;20035;-81
2022/05/01 01:48:10;;;;;;;0.40;0.40;;;;;;;9.52;100.00;101751.53;5066615;28;20381;-82
2022/05/01 01:50:35;;;;;;;0.40;0.40;;;;;;;9.52;100.00;101746.19;5049035;28;20033;-81
2022/05/01 01:53:01;;;;;;;0.40;0.40;;;;;;;9.53;100.00;101751.41;5061515;28;20036;-82
2022/05/01 01:55:26;;;;;;;0.40;0.40;;;;;;;9.54;100.00;101749.56;5056922;28;20506;-81
2022/05/01 01:57:52;;;;;;;0.40;0.40;;;;;;;9.37;100.00;101722.47;5039416;28;20465;-81
2022/05/01 02:00:18;;;;;;;0.30;0.30;;;;;;;9.42;100.00;101732.75;5065010;28;20028;-81
2022/05/01 02:02:43;;;;;;;0.40;0.40;;;;;;;9.49;100.00;101746.47;5051311;28;20496;-81
2022/05/01 02:05:09;;;;;;;0.40;0.40;;;;;;;9.46;100.00;101737.72;5068153;28;20017;-81
2022/05/01 02:07:35;;;;;;;0.40;0.40;;;;;;;9.49;100.00;101741.09;5056208;28;20040;-81
2022/05/01 02:10:01;;;;;;;0.30;0.30;;;;;;;9.50;100.00;101749.03;5068372;28;20044;-81
2022/05/01 02:12:27;;;;;;;0.30;0.30;;;;;;;9.46;100.00;101731.50;5034854;28;20055;-81
2022/05/01 02:14:53;;;;;;;0.40;0.40;;;;;;;9.48;100.00;101742.09;5052468;28;20020;-81
2022/05/01 02:17:19;;;;;;;0.40;0.40;;;;;;;9.50;100.00;101738.28;5029206;28;20028;-81
2022/05/01 02:19:44;;;;;;;0.30;0.30;;;;;;;9.48;100.00;101734.06;5066504;28;20389;-81
2022/05/01 02:22:10;;;;;;;0.35;0.35;;;;;;;9.50;100.00;101727.53;5063201;28;20028;-81
2022/05/01 02:24:35;;;;;;;0.38;0.38;;;;;;;9.52;100.00;101732.75;5049341;28;20036;-81
2022/05/01 02:27:01;;;;;;;0.40;0.40;;;;;;;9.44;100.00;101707.47;5054883;28;20029;-80
2022/05/01 02:29:27;;;;;;;0.30;0.30;;;;;;;9.51;100.00;101721.19;5034478;28;20060;-81
2022/05/01 02:31:53;;;;;;;0.40;0.40;;;;;;;9.51;100.00;101715.81;5048527;28;20028;-81
2022/05/01 02:34:22;;;;;;;0.40;0.40;;;;;;;9.55;100.00;101719.91;5031657;28;20047;-82
2022/05/01 02:36:48;;;;;;;0.30;0.30;;;;;;;9.55;100.00;101710.97;5047999;28;20029;-81
2022/05/01 02:39:14;;;;;;;0.35;0.35;;;;;;;9.51;100.00;101702.38;5028909;28;20032;-81
2022/05/01 02:41:40;;;;;;;0.30;0.30;;;;;;;9.55;100.00;101713.66;5068557;28;20036;-80
2022/05/01 02:44:05;;;;;;;0.30;0.30;;;;;;;9.46;100.00;101691.22;5062697;28;20033;-83
2022/05/01 02:46:32;;;;;;;0.30;0.30;;;;;;;9.54;100.00;101702.09;5056095;28;20039;-81
2022/05/01 02:48:58;;;;;;;0.40;0.40;;;;;;;9.51;100.00;101697.00;5067727;28;20476;-81
2022/05/01 02:51:24;;;;;;;0.30;0.30;;;;;;;9.46;100.00;101691.22;5066558;28;20029;-82
2022/05/01 02:53:49;;;;;;;0.30;0.30;;;;;;;9.55;100.00;101701.13;5053190;28;20128;-81
2022/05/01 02:56:15;;;;;;;0.40;0.40;;;;;;;9.52;100.00;101689.78;5052207;28;20060;-81
2022/05/01 02:58:40;;;;;;;0.50;0.50;;;;;;;9.59;100.00;101699.81;5066643;28;20024;-81
2022/05/01 03:01:06;;;;;;;0.45;0.45;;;;;;;9.59;100.00;101696.28;5032924;28;20029;-81
2022/05/01 03:03:32;;;;;;;0.40;0.40;;;;;;;9.60;100.00;101697.97;5033285;28;20055;-83
2022/05/01 03:05:58;;;;;;;0.30;0.30;;;;;;;9.59;100.00;101697.13;5051805;28;20075;-81
2022/05/01 03:08:24;;;;;;;0.38;0.38;;;;;;;9.56;100.00;101683.16;5051524;28;20036;-81
2022/05/01 03:10:51;;;;;;;0.40;0.40;;;;;;;9.61;100.00;101697.84;5062520;28;20146;-82
2022/05/01 03:13:19;;;;;;;0.40;0.40;;;;;;;9.42;100.00;101662.97;5046854;28;20517;-81
2022/05/01 03:15:45;;;;;;;0.40;0.40;;;;;;;9.61;100.00;101683.56;5055246;28;20086;-80
2022/05/01 03:23:40;;;;;;;0.40;0.40;;;;;;;9.59;100.00;101689.06;5065009;28;20039;-81
2022/05/01 03:26:06;;;;;;;0.65;0.63;;;;;;;9.59;100.00;101689.06;5035249;28;20032;-81
2022/05/01 03:28:32;;;;;;;0.30;0.30;;;;;;;9.61;100.00;101687.09;5032667;28;20038;-81
2022/05/01 03:30:57;;;;;;;0.30;0.30;;;;;;;9.56;100.00;101673.25;5035059;28;20106;-81
2022/05/01 03:33:25;;;;;;;0.40;0.40;;;;;;;9.59;100.00;101680.19;5071295;28;20489;-81
2022/05/01 03:35:51;;;;;;;0.60;0.60;;;;;;;9.61;100.00;101678.19;5038132;28;20066;-81
2022/05/01 03:38:17;;;;;;;0.32;0.32;;;;;;;9.65;100.00;101683.09;5072473;28;20036;-81
2022/05/01 03:40:44;;;;;;;0.38;0.38;;;;;;;9.60;100.00;101669.28;5035447;28;20032;-81
2022/05/01 03:43:09;;;;;;;0.95;0.95;;;;;;;9.63;100.00;101674.38;5061269;28;20040;-80
2022/05/01 03:45:35;;;;;;;0.32;0.32;;;;;;;9.63;100.00;101674.38;5068698;28;20088;-80
2022/05/01 03:48:00;;;;;;;0.45;0.45;;;;;;;9.68;100.00;101684.66;5058772;28;20068;-81
2022/05/01 03:50:26;;;;;;;0.35;0.35;;;;;;;9.63;100.00;101677.06;5093319;28;20023;-80
2022/05/01 03:52:52;;;;;;;0.30;0.30;;;;;;;9.66;100.00;101684.81;5058294;28;20036;-82
2022/05/01 03:55:18;;;;;;;0.40;0.40;;;;;;;9.66;100.00;101679.44;5094669;28;20039;-81
2022/05/01 03:57:43;;;;;;;0.32;0.32;;;;;;;9.65;100.00;101677.72;5056499;28;20032;-82
2022/05/01 04:00:18;;;;;;;0.40;0.40;;;;;;;9.66;100.00;101676.75;5056682;28;20028;-81
2022/05/01 04:02:44;;;;;;;0.40;0.40;;;;;;;9.68;100.00;101677.47;5071369;28;20087;-81
2022/05/01 04:05:11;;;;;;;0.40;0.40;;;;;;;9.71;100.00;101680.81;5055284;28;20124;-81
2022/05/01 04:07:37;;;;;;;0.40;0.40;;;;;;;9.65;100.00;101666.16;5070062;28;20032;-81
2022/05/01 04:10:03;;;;;;;0.30;0.30;;;;;;;9.68;100.00;101665.84;5051382;28;20040;-81
2022/05/01 04:12:29;;;;;;;0.30;0.30;;;;;;;9.61;100.00;101652.19;5054737;28;20093;-81
2022/05/01 04:15:02;;;;;;;0.30;0.30;;;;;;;9.66;100.00;101657.13;5066090;28;20108;-82
2022/05/01 04:17:29;;;;;;;0.45;0.45;;;;;;;9.62;100.00;101651.19;5069707;28;20082;-82
2022/05/01 04:19:55;;;;;;;1.65;0.50;;;;;;;9.71;100.00;101659.34;5054605;28;20032;-81
2022/05/01 04:22:21;;;;;;;0.70;0.70;;;;;;;9.67;100.00;101651.59;5036402;28;20035;-80
2022/05/01 04:24:47;;;;;;;0.63;0.63;;;;;;;9.70;100.00;101661.19;5054160;28;20059;-81
2022/05/01 04:27:13;;;;;;;0.30;0.30;;;;;;;9.69;100.00;101659.50;5066062;28;20541;-81
2022/05/01 04:29:40;;;;;;;0.75;0.75;;;;;;;9.69;100.00;101663.03;5050236;28;20124;-81
2022/05/01 04:32:06;;;;;;;0.30;0.30;;;;;;;9.70;100.00;101647.75;5056116;28;20119;-81
2022/05/01 04:34:35;;;;;;;0.30;0.30;;;;;;;9.66;100.00;101646.38;5050648;28;20068;-81
2022/05/01 04:37:01;;;;;;;0.40;0.40;;;;;;;9.66;100.00;101641.00;5047035;28;20029;-81
2022/05/01 04:39:27;;;;;;;0.30;0.30;;;;;;;9.64;100.00;101633.09;5054402;28;20036;-81
2022/05/01 04:41:53;;;;;;;0.40;0.40;;;;;;;9.71;100.00;101643.22;5052223;28;20025;-81
2022/05/01 04:44:19;;;;;;;0.40;0.40;;;;;;;9.66;100.00;101632.94;5052985;28;20040;-81
2022/05/01 04:46:49;;;;;;;0.40;0.40;;;;;;;9.59;100.00;101621.94;5048535;28;20041;-80
2022/05/01 04:49:18;;;;;;;0.40;0.40;;;;;;;9.73;100.00;101643.94;5050897;28;20021;-82
2022/05/01 04:51:44;;;;;;;0.30;0.30;;;;;;;9.68;100.00;101636.31;5068030;28;20029;-82
2022/05/01 04:54:10;;;;;;;0.50;0.50;;;;;;;9.62;100.00;101629.69;5054277;28;20058;-81
2022/05/01 04:59:20;;;;;;;0.30;0.30;;;;;;;9.72;100.00;101643.09;5069020;28;20043;-81
2022/05/01 05:01:45;;;;;;;0.40;0.40;;;;;;;9.75;100.00;101640.09;5068671;28;20035;-81
2022/05/01 05:04:11;;;;;;;0.30;0.30;;;;;;;9.76;100.00;101646.31;5055384;28;20127;-82
2022/05/01 05:06:36;;;;;;;0.38;0.38;;;;;;;9.71;100.00;101633.31;5047673;28;20043;-81
2022/05/01 05:11:46;;;;;;;0.40;0.40;;;;;;;9.76;100.00;101630.19;5052518;28;20063;-81
2022/05/01 05:14:12;;;;;;;0.75;0.75;;;;;;;9.75;100.00;101629.34;5051221;28;20301;-82
2022/05/01 05:16:37;;;;;;;0.40;0.40;;;;;;;9.72;100.00;101621.59;5070303;28;20162;-81
2022/05/01 05:19:03;;;;;;;2.05;1.95;;;;;;;9.69;100.00;101608.47;5050678;28;20036;-83
2022/05/01 05:21:29;;;;;;;1.80;1.38;;;;;;;9.81;100.00;101625.22;5068636;28;20032;-80
2022/05/01 05:23:55;;;;;;;1.55;1.48;;;;;;;9.75;100.00;101609.72;5052851;28;20420;-81
2022/05/01 05:26:21;;;;;;;0.50;0.50;;;;;;;9.81;100.00;101617.16;5070696;28;20074;-81
2022/05/01 05:28:47;;;;;;;2.63;1.88;;;;;;;9.85;100.00;101618.56;5067696;28;20024;-82
2022/05/01 05:31:12;;;;;;;0.73;0.73;;;;;;;9.83;100.00;101601.75;5069950;28;20081;-82
2022/05/01 05:33:38;;;;;;;1.30;1.13;;;;;;;9.90;100.00;101608.22;5054328;28;20093;-80
2022/05/01 05:36:03;;;;;;;2.28;1.45;;;;;;;9.91;100.00;101608.06;5033836;28;20040;-82
2022/05/01 05:38:29;;;;;;;1.50;1.40;;;;;;;9.98;100.00;101610.16;5045495;28;20039;-81
2022/05/01 05:40:55;;;;;;;2.80;0.57;;;;;;;9.99;100.00;101611.84;5050813;28;20280;-80
2022/05/01 05:43:20;;;;;;;2.42;2.22;;;;;;;10.03;100.00;101610.53;5043748;28;20162;-80
2022/05/01 05:45:46;;;;;;;1.58;1.48;;;;;;;10.02;100.00;101607.00;5049134;28;20036;-81
2022/05/01 05:48:11;;;;;;;1.80;1.33;;;;;;;10.08;100.00;101614.47;5052274;28;20028;-80
2022/05/01 05:50:37;;;;;;;1.58;1.48;;;;;;;10.05;100.00;101603.16;5059316;28;20036;-81
2022/05/01 05:53:03;;;;;;;1.63;1.55;;;;;;;10.10;100.00;101612.47;5050066;28;20105;-81
2022/05/01 05:55:33;;;;;;;2.20;1.92;;;;;;;10.03;100.00;101595.28;5052481;28;20071;-81
2022/05/01 05:58:00;;;;;;;2.30;2.08;;;;;;;10.02;100.00;101598.94;5054614;28;20081;-81
2022/05/01 06:00:26;;;;;;;5.03;4.30;;;;;;;10.16;100.00;101621.78;5044956;28;20039;-81
2022/05/01 06:02:52;;;;;;;4.75;3.35;;;;;;;10.18;100.00;101621.63;5070920;28;20031;-80
2022/05/01 06:05:17;;;;;;;2.22;2.13;;;;;;;10.18;100.00;101616.22;5035636;28;20032;-80
2022/05/01 06:07:43;;;;;;;2.63;2.42;;;;;;;10.21;100.00;101615.94;5050343;28;20024;-81
2022/05/01 06:10:09;;;;;;;1.17;0.90;;;;;;;10.20;100.00;101608.88;5070096;28;20393;-81
2022/05/01 06:12:41;;;;;;;0.95;0.95;;;;;;;10.26;100.00;101621.69;5066151;28;20031;-81
2022/05/01 06:15:08;;;;;;;5.07;2.83;;;;;;;10.22;100.00;101594.28;5052608;28;20106;-81
2022/05/01 06:17:33;;;;;;;2.08;1.92;;;;;;;10.33;100.00;101604.00;5045862;28;20090;-81
2022/05/01 06:19:59;;;;;;;1.55;1.42;;;;;;;10.42;100.00;101611.13;5051873;28;20028;-81
2022/05/01 06:22:24;;;;;;;4.35;2.30;;;;;;;10.38;100.00;101596.31;5032782;28;20040;-81
2022/05/01 06:24:50;;;;;;;3.17;2.88;;;;;;;10.47;100.00;101611.50;5033180;28;20116;-81
2022/05/01 06:27:16;;;;;;;1.20;1.02;;;;;;;10.52;100.00;101609.19;5035321;28;20089;-81
2022/05/01 06:29:41;;;;;;;1.25;1.00;;;;;;;10.47;100.00;101589.16;5043060;28;20521;-82
2022/05/01 06:32:07;;;;;;;6.25;2.80;;;;;;;10.56;100.00;101602.53;5035530;28;20512;-81
2022/05/01 06:34:35;;;;;;;8.38;4.32;;;;;;;10.54;100.00;101593.75;5047190;28;20051;-81
2022/05/01 06:37:06;;;;;;;16.67;4.03;;;;;;;10.46;100.00;101585.63;5045418;28;20435;-81
2022/05/01 06:39:33;;;;;;;9.50;4.65;;;;;;;10.55;100.00;101599.97;5045368;28;20088;-81
2022/05/01 06:41:58;;;;;;;9.77;5.55;;;;;;;10.50;100.00;101591.53;5036110;28;20097;-81
2022/05/01 06:44:24;;;;;;;10.65;4.30;;;;;;;10.51;100.00;101599.47;5045591;28;20474;-81
2022/05/01 06:46:49;;;;;;;8.70;4.78;;;;;;;10.51;100.00;101602.16;5049736;28;20151;-81
2022/05/01 06:49:15;;;;;;;12.40;4.32;;;;;;;10.50;100.00;101596.91;5057659;28;20037;-81
2022/05/01 06:51:40;;;;;;;9.98;5.40;;;;;;;10.58;100.00;101602.34;5031968;28;20059;-81
2022/05/01 06:54:08;;;;;;;12.90;6.20;;;;;;;10.56;100.00;101596.31;5065319;28;20117;-81
2022/05/01 06:56:37;;;;;;;8.82;6.07;;;;;;;10.59;100.00;101595.16;5039974;28;20059;-82
2022/05/01 06:59:03;;;;;;;11.27;5.75;;;;;;;10.55;100.00;101590.06;5059775;28;20032;-81
2022/05/01 07:01:29;;;;;;;13.27;6.82;;;;;;;10.54;100.00;101591.06;5025754;28;20127;-81
2022/05/01 07:04:12;;;;;;;15.27;5.95;;;;;;;10.54;100.00;101585.69;5045975;28;20521;-81
2022/05/01 07:06:37;;;;;;;9.27;5.72;;;;;;;10.57;100.00;101592.59;5048088;28;20072;-81
2022/05/01 07:09:03;;;;;;;13.13;5.90;;;;;;;10.59;100.00;101600.53;5053368;28;20521;-81
2022/05/01 07:11:28;;;;;;;12.27;5.90;;;;;;;10.56;100.00;101593.63;5055014;28;20418;-81
2022/05/01 07:13:54;;;;;;;17.75;7.30;;;;;;;10.52;100.00;101587.69;5047583;28;20048;-81
2022/05/01 07:16:22;;;;;;;11.68;6.47;;;;;;;10.54;100.00;101593.75;5033981;28;20074;-82
2022/05/01 07:18:47;;;;;;;19.35;7.10;;;;;;;10.60;100.00;101591.47;5032187;28;20028;-81
2022/05/01 07:21:22;;;;;;;16.02;7.18;;;;;;;10.55;100.00;101584.69;5049778;28;20059;-81
2022/05/01 07:23:52;;;;;;;15.60;6.85;;;;;;;10.66;100.00;101580.91;5041350;28;20025;-81
2022/05/01 07:26:18;;;;;;;24.88;7.85;;;;;;;10.72;100.00;101590.22;5049059;28;20466;-80
2022/05/01 07:28:43;;;;;;;19.63;7.78;;;;;;;10.75;100.00;101587.22;5064331;28;20032;-81
2022/05/01 07:31:09;;;;;;;17.25;7.68;;;;;;;10.75;100.00;101595.28;5029967;28;21310;-81
2022/05/01 07:33:35;;;;;;;21.20;7.47;;;;;;;10.75;100.00;101592.59;5051359;28;20032;-81
2022/05/01 07:36:01;;;;;;;20.10;8.27;;;;;;;10.75;100.00;101590.75;5052990;28;20466;-81
2022/05/01 07:38:27;;;;;;;11.13;4.93;;;;;;;10.78;100.00;101589.59;5067210;28;20461;-81
2022/05/01 07:40:53;;;;;;;21.80;9.25;;;;;;;10.81;100.00;101591.13;5072965;28;20040;-81
2022/05/01 07:43:19;;;;;;;20.58;10.23;;;;;;;10.84;100.00;101585.41;5039561;28;20063;-81
2022/05/01 07:45:45;;;;;;;16.25;7.72;;;;;;;10.94;100.00;101589.69;5054818;28;20053;-81
2022/05/01 07:48:11;;;;;;;23.15;8.07;;;;;;;10.97;100.00;101593.91;5054791;28;20033;-81
2022/05/01 07:50:36;;;;;;;23.13;9.20;;;;;;;11.00;100.00;101593.59;5036919;28;20032;-81
2022/05/01 07:53:02;;;;;;;25.00;9.60;;;;;;;11.06;100.00;101600.19;5067608;28;20044;-80
2022/05/01 07:55:28;;;;;;;20.30;8.00;;;;;;;11.08;100.00;101595.50;5034738;28;20520;-80
2022/05/01 07:57:54;;;;;;;24.13;9.18;;;;;;;11.15;100.00;101592.00;5053640;28;20115;-81
2022/05/01 08:00:19;;;;;;;20.40;8.05;;;;;;;11.16;100.00;101584.78;5038928;28;20056;-80
2022/05/01 08:05:29;;;;;;;22.83;8.18;;;;;;;11.26;100.00;101587.38;5070624;28;20021;-81
2022/05/01 08:07:56;;;;;;;26.10;9.60;;;;;;;11.27;100.00;101587.19;5038604;28;20040;-80
2022/05/01 08:10:22;;;;;;;24.55;10.25;;;;;;;11.25;100.00;101577.63;5071402;28;20142;-79
2022/05/01 08:12:48;;;;;;;25.33;9.48;;;;;;;11.31;100.00;101571.56;5049865;28;20124;-80
2022/05/01 08:15:20;;;;;;;21.67;9.15;;;;;;;11.55;100.00;101581.63;5054569;28;20036;-80
2022/05/01 08:17:48;;;;;;;19.90;9.43;;;;;;;11.74;100.00;101573.25;5046076;28;20128;-81
2022/05/01 08:23:05;;;;;;;19.23;6.68;;;;;;;11.72;100.00;101566.34;5058332;28;20037;-80
2022/05/01 08:25:31;;;;;;;22.23;10.00;;;;;;;11.77;100.00;101581.00;5071353;28;20122;-80
2022/05/01 08:27:59;;;;;;;21.70;9.35;;;;;;;11.78;100.00;101577.31;5069128;28;20397;-80
2022/05/01 08:30:24;;;;;;;25.55;10.73;;;;;;;11.88;100.00;101575.38;5054658;28;20040;-82
2022/05/01 08:32:50;;;;;;;18.88;8.60;;;;;;;11.92;100.00;101572.34;5053534;28;20094;-81
2022/05/01 08:35:15;;;;;;;19.05;9.10;;;;;;;11.96;100.00;101571.84;5026442;28;20474;-80
2022/05/01 08:41:43;;;;;;;20.25;7.63;;;;;;;12.15;100.00;101516.78;5009324;28;20045;-81
2022/05/01 08:48:12;;;;;;;17.73;7.47;;;;;;;12.66;100.00;101540.88;5004173;28;20037;-81
2022/05/01 08:50:38;;;;;;;17.73;9.73;;;;;;;12.93;100.00;101567.47;5038412;28;20021;-80
2022/05/01 08:53:05;;;;;;;19.38;9.00;;;;;;;12.96;100.00;101567.13;5054042;28;20089;-80
2022/05/01 08:55:30;;;;;;;16.00;7.82;;;;;;;12.98;100.00;101559.69;5070341;28;20036;-80
2022/05/01 08:57:57;;;;;;;17.50;7.18;;;;;;;12.94;100.00;101568.34;5053886;28;20032;-80
2022/05/01 09:00:23;;;;;;;15.15;7.28;;;;;;;12.83;100.00;101571.38;5069203;28;20465;-81
2022/05/01 09:02:48;;;;;;;15.80;7.47;;;;;;;12.72;100.00;101559.91;5052705;28;20025;-83
2022/05/01 09:05:14;;;;;;;19.45;7.43;;;;;;;12.63;100.00;101547.44;5059220;28;20033;-83
2022/05/01 09:07:40;;;;;;;16.40;7.80;;;;;;;12.86;100.00;101561.09;5054582;28;20121;-81
2022/05/01 09:10:08;;;;;;;18.45;7.35;;;;;;;13.01;100.00;101553.13;5053813;28;20108;-81
2022/05/01 09:12:49;;;;;;;15.57;7.15;;;;;;;12.93;100.00;101553.13;5070946;28;20112;-82
2022/05/01 09:15:35;;;;;;;17.52;6.93;;;;;;;12.63;100.00;101557.41;5082053;28;20037;-82
2022/05/01 09:18:04;;;;;;;16.83;7.13;;;;;;;12.50;100.00;101563.31;5055725;28;20161;-82
2022/05/01 09:20:30;;;;;;;16.35;8.63;;;;;;;12.57;100.00;101556.25;5052797;28;20028;-82
2022/05/01 09:22:58;;;;;;;17.80;8.55;;;;;;;12.59;100.00;101561.44;5061754;28;20020;-83
2022/05/01 09:25:28;;;;;;;15.93;8.20;;;;;;;12.69;100.00;101560.25;5071358;28;20036;-84
2022/05/01 09:28:02;;;;;;;14.55;6.90;;;;;;;12.83;100.00;101518.22;5054353;28;20106;-83
2022/05/01 09:30:33;;;;;;;15.93;6.55;;;;;;;13.17;100.00;101533.34;5073537;28;20028;-84
2022/05/01 09:33:00;;;;;;;15.73;7.28;;;;;;;13.46;100.00;101540.84;5054493;28;20096;-84
2022/05/01 09:35:31;;;;;;;13.52;6.70;;;;;;;13.60;100.00;101564.44;5070471;28;20170;-84
2022/05/01 09:38:22;;;;;;;12.60;6.32;;;;;;;13.68;100.00;101547.34;5050136;28;20033;-83
2022/05/01 09:40:49;;;;;;;20.42;7.60;;;;;;;13.85;100.00;101556.19;5032417;28;20025;-82
2022/05/01 09:43:43;;;;;;;12.02;6.55;;;;;;;14.14;100.00;101565.47;5037082;28;20060;-83
2022/05/01 09:46:20;;;;;;;10.55;4.72;;;;;;;14.41;100.00;101564.09;5071705;28;20066;-85
2022/05/01 09:48:55;;;;;;;18.98;6.28;;;;;;;14.18;100.00;101566.78;5025716;28;20478;-83
2022/05/01 09:51:21;;;;;;;12.82;6.28;;;;;;;14.09;100.00;101560.59;5068962;28;20020;-84
2022/05/01 09:53:46;;;;;;;17.85;7.13;;;;;;;14.21;100.00;101558.31;5065124;28;20021;-84
2022/05/01 09:56:12;;;;;;;12.52;6.28;;;;;;;13.85;100.00;101530.00;5037369;28;20040;-84
2022/05/01 09:58:40;;;;;;;16.08;6.40;;;;;;;13.80;100.00;101545.06;5086274;28;20031;-80
2022/05/01 10:01:13;;;;;;;12.77;6.93;;;;;;;13.68;100.00;101554.59;5047585;28;20040;-79
2022/05/01 10:03:40;;;;;;;;;;;;;;;13.44;100.00;101553.69;5069551;28;20027;-80
2022/05/01 10:06:09;;;;;;;12.45;6.50;;;;;;;13.43;100.00;101551.16;5050578;28;19962;-80
2022/05/01 10:08:37;;;;;;;13.05;7.68;;;;;;;13.76;100.00;101552.72;5053613;28;20028;-80
2022/05/01 10:11:04;;;;;;;12.82;6.03;;;;;;;14.13;100.00;101552.97;5053057;28;20040;-80
2022/05/01 10:13:31;;;;;;;15.48;7.47;;;;;;;14.38;100.00;101568.00;5031157;28;20033;-80
2022/05/01 10:15:56;;;;;;;16.52;8.05;;;;;;;14.25;100.00;101529.91;5069338;28;20107;-80
2022/05/01 10:18:23;;;;;;;25.95;6.85;;;;;;;14.46;100.00;101556.28;5041041;28;20055;-80
2022/05/01 10:20:48;;;;;;;13.48;6.15;;;;;;;14.47;100.00;101555.25;5032011;28;20032;-81
2022/05/01 10:23:16;;;;;;;8.10;5.47;;;;;;;14.50;100.00;101561.16;5029306;28;20032;-80
2022/05/01 10:25:50;;;;;;;7.63;4.65;;;;;;;14.28;100.00;101543.88;5052567;28;20386;-81
2022/05/01 10:28:40;;;;;;;12.75;5.25;;;;;;;14.38;100.00;101553.63;5035816;28;20416;-80
2022/05/01 10:34:30;;;;;;;11.70;5.07;;;;;;;14.09;100.00;101552.50;5066701;28;20620;-81
2022/05/01 10:37:09;;;;;;;12.82;5.40;;;;;;;13.98;100.00;101544.81;5066626;28;20027;-80
2022/05/01 10:39:38;;;;;;;13.55;5.93;;;;;;;13.75;100.00;101545.59;5068539;28;20028;-81
2022/05/01 10:42:04;;;;;;;12.90;5.75;;;;;;;13.46;100.00;101527.34;5030639;28;20551;-80
2022/05/01 10:44:33;;;;;;;10.15;5.18;;;;;;;13.50;100.00;101550.31;5068299;28;20021;-81
2022/05/01 10:47:13;;;;;;;6.22;3.10;;;;;;;13.40;100.00;101536.16;5051426;28;20032;-81
2022/05/01 10:49:47;;;;;;;8.02;4.15;;;;;;;13.46;100.00;101532.75;5048667;28;20047;-80
2022/05/01 10:52:20;;;;;;;7.15;3.53;;;;;;;14.16;100.00;101536.41;5037523;28;20154;-80
2022/05/01 10:55:04;;;;;;;7.82;3.88;;;;;;;14.96;100.00;101538.56;5050700;28;20037;-80
2022/05/01 10:57:30;;;;;;;5.20;3.10;;;;;;;15.31;100.00;101539.69;5047627;28;20064;-80
2022/05/01 11:00:09;;;;;;;8.52;3.67;;;;;;;15.40;99.54;101535.03;5073329;28;20039;-80
2022/05/01 11:02:39;;;;;;;5.95;2.45;;;;;;;15.92;97.14;101536.69;5051405;28;20021;-80
2022/05/01 11:05:07;;;;;;;4.80;3.15;;;;;;;16.94;91.28;101529.28;5068999;28;20077;-80
2022/05/01 11:07:35;;;;;;;5.68;3.22;;;;;;;18.36;83.24;101529.38;5078426;28;20104;-81
2022/05/01 11:10:03;;;;;;;6.43;3.10;;;;;;;18.36;80.97;101512.19;5094600;28;20051;-80
2022/05/01 11:12:30;;;;;;;6.38;3.20;;;;;;;17.95;78.66;101514.03;5075804;28;20080;-80
2022/05/01 11:14:56;;;;;;;8.00;3.00;;;;;;;17.26;77.73;101525.06;5082696;28;20096;-81
2022/05/01 11:17:49;;;;;;;5.55;3.13;;;;;;;16.38;78.36;101520.06;5062779;28;20033;-80
2022/05/01 11:20:23;;;;;;;6.30;2.92;;;;;;;15.76;83.60;101517.97;5087719;28;20025;-80
2022/05/01 11:22:49;;;;;;;6.50;3.25;;;;;;;15.43;81.49;101501.25;5054266;28;20075;-80
2022/05/01 11:25:40;;;;;;;10.52;3.28;;;;;;;15.77;78.82;101515.06;5033972;28;20032;-80
2022/05/01 11:28:06;;;;;;;6.45;3.20;;;;;;;16.48;78.25;101508.84;5052499;28;20032;-80
2022/05/01 11:30:34;;;;;;;7.90;3.22;;;;;;;17.42;71.69;101502.97;5048186;28;20041;-81
2022/05/01 11:33:12;;;;;;;6.30;3.25;;;;;;;18.36;68.56;101487.69;5068293;28;20417;-81
2022/05/01 11:36:00;;;;;;;9.35;4.93;;;;;;;18.37;70.91;101500.28;5029583;28;20032;-81
2022/05/01 11:38:35;;;;;;;6.38;2.90;;;;;;;17.56;70.06;101503.84;5067684;28;20095;-80
2022/05/01 11:41:02;;;;;;;6.43;3.20;;;;;;;16.82;70.63;101490.94;5068750;28;20082;-80
2022/05/01 11:43:31;;;;;;;7.80;3.33;;;;;;;16.44;72.12;101496.72;5033327;28;20098;-81
2022/05/01 11:45:58;;;;;;;6.50;3.70;;;;;;;16.45;71.77;101492.94;5050433;28;20033;-80
2022/05/01 11:48:24;;;;;;;11.48;5.65;;;;;;;16.30;73.85;101482.19;5067056;28;20032;-81
2022/05/01 11:50:52;;;;;;;16.67;7.32;;;;;;;16.35;71.80;101506.84;5066453;28;20028;-80
2022/05/01 11:53:29;;;;;;;8.05;5.75;;;;;;;16.09;75.64;101499.34;5032361;28;20039;-80
2022/05/01 12:04:34;;;;;;;7.10;3.55;;;;;;;14.62;82.05;101495.78;5065740;28;20048;-80
2022/05/01 12:07:08;;;;;;;8.30;4.82;;;;;;;14.56;80.58;101483.00;5055748;28;20023;-81